sensor_id;sensor_type;location;lat;lon;timestamp;P1;durP1;ratioP1;P2;durP2;ratioP2
41436;SDS011;27178;49.460;10.850;2023-03-20T00:02:04;2.60;;;2.40;;
41436;SDS011;27178;49.460;10.850;2023-03-20T00:04:35;2.80;;;2.60;;
41436;SDS011;27178;49.460;10.850;2023-03-20T00:07:03;2.50;;;2.30;;
41436;SDS011;27178;49.460;10.850;2023-03-20T00:09:36;3.10;;;2.30;;
41436;SDS011;27178;49.460;10.850;2023-03-20T00:12:04;2.75;;;2.33;;
41436;SDS011;27178;49.460;10.850;2023-03-20T00:14:33;3.63;;;2.05;;
41436;SDS011;27178;49.460;10.850;2023-03-20T00:17:04;2.55;;;2.25;;
41436;SDS011;27178;49.460;10.850;2023-03-20T00:19:38;3.08;;;2.17;;
41436;SDS011;27178;49.460;10.850;2023-03-20T00:22:07;2.67;;;2.22;;
41436;SDS011;27178;49.460;10.850;2023-03-20T00:24:35;2.90;;;2.67;;
41436;SDS011;27178;49.460;10.850;2023-03-20T00:27:04;3.88;;;2.75;;
41436;SDS011;27178;49.460;10.850;2023-03-20T00:29:32;2.72;;;2.53;;
41436;SDS011;27178;49.460;10.850;2023-03-20T00:32:00;3.10;;;2.50;;
41436;SDS011;27178;49.460;10.850;2023-03-20T00:34:29;2.58;;;2.38;;
41436;SDS011;27178;49.460;10.850;2023-03-20T00:36:59;2.97;;;2.78;;
41436;SDS011;27178;49.460;10.850;2023-03-20T00:39:27;2.97;;;2.78;;
41436;SDS011;27178;49.460;10.850;2023-03-20T00:41:57;3.05;;;2.85;;
41436;SDS011;27178;49.460;10.850;2023-03-20T00:44:29;4.68;;;4.28;;
41436;SDS011;27178;49.460;10.850;2023-03-20T00:47:00;4.40;;;4.00;;
41436;SDS011;27178;49.460;10.850;2023-03-20T00:49:32;4.80;;;4.30;;
41436;SDS011;27178;49.460;10.850;2023-03-20T00:52:08;3.75;;;3.45;;
41436;SDS011;27178;49.460;10.850;2023-03-20T00:54:37;3.85;;;3.45;;
41436;SDS011;27178;49.460;10.850;2023-03-20T00:57:07;5.07;;;4.57;;
41436;SDS011;27178;49.460;10.850;2023-03-20T00:59:40;5.03;;;4.63;;
41436;SDS011;27178;49.460;10.850;2023-03-20T01:02:22;3.30;;;3.10;;
41436;SDS011;27178;49.460;10.850;2023-03-20T01:04:52;3.45;;;3.17;;
41436;SDS011;27178;49.460;10.850;2023-03-20T01:07:22;3.28;;;2.95;;
41436;SDS011;27178;49.460;10.850;2023-03-20T01:09:50;3.90;;;3.17;;
41436;SDS011;27178;49.460;10.850;2023-03-20T01:12:18;2.78;;;2.58;;
41436;SDS011;27178;49.460;10.850;2023-03-20T01:14:47;2.42;;;2.22;;
41436;SDS011;27178;49.460;10.850;2023-03-20T01:17:18;2.58;;;2.30;;
41436;SDS011;27178;49.460;10.850;2023-03-20T01:19:48;3.08;;;2.78;;
41436;SDS011;27178;49.460;10.850;2023-03-20T01:22:17;3.40;;;2.28;;
41436;SDS011;27178;49.460;10.850;2023-03-20T01:24:47;2.25;;;2.05;;
41436;SDS011;27178;49.460;10.850;2023-03-20T01:27:16;2.60;;;2.40;;
41436;SDS011;27178;49.460;10.850;2023-03-20T01:29:46;2.25;;;2.15;;
41436;SDS011;27178;49.460;10.850;2023-03-20T01:32:14;2.38;;;2.17;;
41436;SDS011;27178;49.460;10.850;2023-03-20T01:34:45;2.70;;;2.30;;
41436;SDS011;27178;49.460;10.850;2023-03-20T01:37:16;2.40;;;2.20;;
41436;SDS011;27178;49.460;10.850;2023-03-20T01:39:50;4.63;;;2.72;;
41436;SDS011;27178;49.460;10.850;2023-03-20T01:42:20;2.35;;;2.15;;
41436;SDS011;27178;49.460;10.850;2023-03-20T01:44:48;2.88;;;2.58;;
41436;SDS011;27178;49.460;10.850;2023-03-20T01:47:18;2.88;;;2.67;;
41436;SDS011;27178;49.460;10.850;2023-03-20T01:52:55;2.85;;;2.65;;
41436;SDS011;27178;49.460;10.850;2023-03-20T01:55:30;2.92;;;2.60;;
41436;SDS011;27178;49.460;10.850;2023-03-20T01:57:59;2.67;;;2.47;;
41436;SDS011;27178;49.460;10.850;2023-03-20T02:00:33;3.15;;;2.83;;
41436;SDS011;27178;49.460;10.850;2023-03-20T02:03:03;3.08;;;2.78;;
41436;SDS011;27178;49.460;10.850;2023-03-20T02:05:34;3.35;;;2.90;;
41436;SDS011;27178;49.460;10.850;2023-03-20T02:08:07;3.42;;;2.75;;
41436;SDS011;27178;49.460;10.850;2023-03-20T02:10:45;3.05;;;2.70;;
41436;SDS011;27178;49.460;10.850;2023-03-20T02:13:14;3.88;;;3.30;;
41436;SDS011;27178;49.460;10.850;2023-03-20T02:18:33;3.25;;;2.95;;
41436;SDS011;27178;49.460;10.850;2023-03-20T02:21:19;3.53;;;3.17;;
41436;SDS011;27178;49.460;10.850;2023-03-20T02:24:16;3.58;;;3.28;;
41436;SDS011;27178;49.460;10.850;2023-03-20T02:27:14;3.53;;;3.22;;
41436;SDS011;27178;49.460;10.850;2023-03-20T02:29:56;3.45;;;3.15;;
41436;SDS011;27178;49.460;10.850;2023-03-20T02:35:44;3.25;;;3.05;;
41436;SDS011;27178;49.460;10.850;2023-03-20T02:38:43;3.60;;;3.30;;
41436;SDS011;27178;49.460;10.850;2023-03-20T02:45:13;3.60;;;3.30;;
41436;SDS011;27178;49.460;10.850;2023-03-20T02:47:47;3.40;;;3.20;;
41436;SDS011;27178;49.460;10.850;2023-03-20T02:50:21;3.88;;;3.58;;
41436;SDS011;27178;49.460;10.850;2023-03-20T02:52:59;3.78;;;3.47;;
41436;SDS011;27178;49.460;10.850;2023-03-20T02:55:39;7.78;;;3.58;;
41436;SDS011;27178;49.460;10.850;2023-03-20T02:58:14;3.63;;;3.33;;
41436;SDS011;27178;49.460;10.850;2023-03-20T03:00:49;3.78;;;3.47;;
41436;SDS011;27178;49.460;10.850;2023-03-20T03:03:25;3.70;;;3.35;;
41436;SDS011;27178;49.460;10.850;2023-03-20T03:06:01;4.00;;;3.70;;
41436;SDS011;27178;49.460;10.850;2023-03-20T03:08:35;3.97;;;3.58;;
41436;SDS011;27178;49.460;10.850;2023-03-20T03:11:09;4.07;;;3.78;;
41436;SDS011;27178;49.460;10.850;2023-03-20T03:13:37;4.28;;;3.97;;
41436;SDS011;27178;49.460;10.850;2023-03-20T03:16:09;4.72;;;4.30;;
41436;SDS011;27178;49.460;10.850;2023-03-20T03:18:42;4.80;;;4.40;;
41436;SDS011;27178;49.460;10.850;2023-03-20T03:21:11;3.80;;;3.50;;
41436;SDS011;27178;49.460;10.850;2023-03-20T03:23:44;4.45;;;4.05;;
41436;SDS011;27178;49.460;10.850;2023-03-20T03:26:16;4.45;;;4.15;;
41436;SDS011;27178;49.460;10.850;2023-03-20T03:28:48;4.72;;;4.28;;
41436;SDS011;27178;49.460;10.850;2023-03-20T03:31:19;5.93;;;5.18;;
41436;SDS011;27178;49.460;10.850;2023-03-20T03:33:49;4.85;;;4.45;;
41436;SDS011;27178;49.460;10.850;2023-03-20T03:36:22;5.70;;;5.10;;
41436;SDS011;27178;49.460;10.850;2023-03-20T03:39:00;5.28;;;4.88;;
41436;SDS011;27178;49.460;10.850;2023-03-20T03:41:38;6.20;;;5.55;;
41436;SDS011;27178;49.460;10.850;2023-03-20T03:44:10;5.28;;;4.88;;
41436;SDS011;27178;49.460;10.850;2023-03-20T03:46:44;6.40;;;5.90;;
41436;SDS011;27178;49.460;10.850;2023-03-20T03:49:17;5.97;;;5.53;;
41436;SDS011;27178;49.460;10.850;2023-03-20T03:51:52;6.88;;;6.28;;
41436;SDS011;27178;49.460;10.850;2023-03-20T03:54:24;5.78;;;5.38;;
41436;SDS011;27178;49.460;10.850;2023-03-20T03:56:59;5.85;;;5.45;;
41436;SDS011;27178;49.460;10.850;2023-03-20T03:59:32;6.50;;;5.90;;
41436;SDS011;27178;49.460;10.850;2023-03-20T04:02:04;7.43;;;6.82;;
41436;SDS011;27178;49.460;10.850;2023-03-20T04:04:35;8.48;;;7.78;;
41436;SDS011;27178;49.460;10.850;2023-03-20T04:07:08;6.72;;;6.22;;
41436;SDS011;27178;49.460;10.850;2023-03-20T04:09:37;8.15;;;7.22;;
41436;SDS011;27178;49.460;10.850;2023-03-20T04:12:08;7.40;;;6.80;;
41436;SDS011;27178;49.460;10.850;2023-03-20T04:14:59;7.90;;;7.30;;
41436;SDS011;27178;49.460;10.850;2023-03-20T04:17:28;8.85;;;8.15;;
41436;SDS011;27178;49.460;10.850;2023-03-20T04:19:57;8.45;;;7.80;;
41436;SDS011;27178;49.460;10.850;2023-03-20T04:22:26;8.38;;;7.68;;
41436;SDS011;27178;49.460;10.850;2023-03-20T04:24:54;8.35;;;7.65;;
41436;SDS011;27178;49.460;10.850;2023-03-20T04:27:23;7.53;;;6.93;;
41436;SDS011;27178;49.460;10.850;2023-03-20T04:29:51;7.55;;;6.95;;
41436;SDS011;27178;49.460;10.850;2023-03-20T04:32:20;7.78;;;7.18;;
41436;SDS011;27178;49.460;10.850;2023-03-20T04:34:48;7.63;;;7.03;;
41436;SDS011;27178;49.460;10.850;2023-03-20T04:37:17;7.93;;;7.32;;
41436;SDS011;27178;49.460;10.850;2023-03-20T04:39:46;7.38;;;6.78;;
41436;SDS011;27178;49.460;10.850;2023-03-20T04:42:14;8.18;;;7.47;;
41436;SDS011;27178;49.460;10.850;2023-03-20T04:44:43;7.68;;;7.07;;
41436;SDS011;27178;49.460;10.850;2023-03-20T04:47:12;7.75;;;7.15;;
41436;SDS011;27178;49.460;10.850;2023-03-20T04:49:40;7.60;;;7.03;;
41436;SDS011;27178;49.460;10.850;2023-03-20T04:52:09;9.52;;;8.73;;
41436;SDS011;27178;49.460;10.850;2023-03-20T04:54:37;8.32;;;7.65;;
41436;SDS011;27178;49.460;10.850;2023-03-20T04:57:06;8.10;;;7.50;;
41436;SDS011;27178;49.460;10.850;2023-03-20T04:59:34;7.28;;;6.70;;
41436;SDS011;27178;49.460;10.850;2023-03-20T05:02:04;9.18;;;8.38;;
41436;SDS011;27178;49.460;10.850;2023-03-20T05:04:32;8.35;;;7.65;;
41436;SDS011;27178;49.460;10.850;2023-03-20T05:07:00;8.10;;;7.40;;
41436;SDS011;27178;49.460;10.850;2023-03-20T05:09:29;8.33;;;7.63;;
41436;SDS011;27178;49.460;10.850;2023-03-20T05:11:57;7.75;;;7.22;;
41436;SDS011;27178;49.460;10.850;2023-03-20T05:14:25;8.00;;;7.40;;
41436;SDS011;27178;49.460;10.850;2023-03-20T05:16:53;8.20;;;7.60;;
41436;SDS011;27178;49.460;10.850;2023-03-20T05:19:23;8.00;;;7.40;;
41436;SDS011;27178;49.460;10.850;2023-03-20T05:21:52;7.88;;;7.10;;
41436;SDS011;27178;49.460;10.850;2023-03-20T05:24:20;7.25;;;6.65;;
41436;SDS011;27178;49.460;10.850;2023-03-20T05:26:48;8.30;;;7.45;;
41436;SDS011;27178;49.460;10.850;2023-03-20T05:29:17;7.22;;;6.72;;
41436;SDS011;27178;49.460;10.850;2023-03-20T05:31:45;8.25;;;7.65;;
41436;SDS011;27178;49.460;10.850;2023-03-20T05:34:13;7.68;;;7.07;;
41436;SDS011;27178;49.460;10.850;2023-03-20T05:36:43;8.15;;;7.55;;
41436;SDS011;27178;49.460;10.850;2023-03-20T05:39:11;8.45;;;7.78;;
41436;SDS011;27178;49.460;10.850;2023-03-20T05:41:39;8.20;;;7.60;;
41436;SDS011;27178;49.460;10.850;2023-03-20T05:44:11;7.68;;;7.07;;
41436;SDS011;27178;49.460;10.850;2023-03-20T05:46:39;6.82;;;6.32;;
41436;SDS011;27178;49.460;10.850;2023-03-20T05:49:07;8.90;;;7.03;;
41436;SDS011;27178;49.460;10.850;2023-03-20T05:51:36;6.72;;;6.13;;
41436;SDS011;27178;49.460;10.850;2023-03-20T05:54:06;6.70;;;6.20;;
41436;SDS011;27178;49.460;10.850;2023-03-20T05:56:34;7.25;;;6.65;;
41436;SDS011;27178;49.460;10.850;2023-03-20T05:59:03;6.63;;;6.05;;
41436;SDS011;27178;49.460;10.850;2023-03-20T06:01:31;6.97;;;6.47;;
41436;SDS011;27178;49.460;10.850;2023-03-20T06:03:59;6.75;;;6.15;;
41436;SDS011;27178;49.460;10.850;2023-03-20T06:06:27;7.35;;;6.82;;
41436;SDS011;27178;49.460;10.850;2023-03-20T06:08:56;7.23;;;6.60;;
41436;SDS011;27178;49.460;10.850;2023-03-20T06:11:25;6.85;;;6.35;;
41436;SDS011;27178;49.460;10.850;2023-03-20T06:13:54;6.07;;;5.57;;
41436;SDS011;27178;49.460;10.850;2023-03-20T06:16:24;6.43;;;5.93;;
41436;SDS011;27178;49.460;10.850;2023-03-20T06:18:52;6.18;;;5.78;;
41436;SDS011;27178;49.460;10.850;2023-03-20T06:21:21;6.47;;;5.97;;
41436;SDS011;27178;49.460;10.850;2023-03-20T06:23:49;6.90;;;6.30;;
41436;SDS011;27178;49.460;10.850;2023-03-20T06:26:20;6.80;;;6.25;;
41436;SDS011;27178;49.460;10.850;2023-03-20T06:28:50;6.63;;;6.10;;
41436;SDS011;27178;49.460;10.850;2023-03-20T06:31:18;6.50;;;6.00;;
41436;SDS011;27178;49.460;10.850;2023-03-20T06:33:47;6.25;;;5.75;;
41436;SDS011;27178;49.460;10.850;2023-03-20T06:36:16;5.70;;;5.25;;
41436;SDS011;27178;49.460;10.850;2023-03-20T06:38:44;7.03;;;6.38;;
41436;SDS011;27178;49.460;10.850;2023-03-20T06:41:12;6.93;;;6.40;;
41436;SDS011;27178;49.460;10.850;2023-03-20T06:44:00;6.63;;;6.13;;
41436;SDS011;27178;49.460;10.850;2023-03-20T06:46:29;6.22;;;5.72;;
41436;SDS011;27178;49.460;10.850;2023-03-20T06:48:57;5.95;;;5.45;;
41436;SDS011;27178;49.460;10.850;2023-03-20T06:51:26;5.57;;;5.18;;
41436;SDS011;27178;49.460;10.850;2023-03-20T06:53:55;5.55;;;5.15;;
41436;SDS011;27178;49.460;10.850;2023-03-20T06:56:23;4.65;;;4.32;;
41436;SDS011;27178;49.460;10.850;2023-03-20T06:58:51;5.15;;;4.75;;
41436;SDS011;27178;49.460;10.850;2023-03-20T07:01:21;4.68;;;4.32;;
41436;SDS011;27178;49.460;10.850;2023-03-20T07:03:49;4.88;;;4.47;;
41436;SDS011;27178;49.460;10.850;2023-03-20T07:06:17;5.00;;;4.57;;
41436;SDS011;27178;49.460;10.850;2023-03-20T07:08:46;4.43;;;4.13;;
41436;SDS011;27178;49.460;10.850;2023-03-20T07:11:15;4.63;;;4.32;;
41436;SDS011;27178;49.460;10.850;2023-03-20T07:13:43;4.95;;;4.55;;
41436;SDS011;27178;49.460;10.850;2023-03-20T07:16:15;4.72;;;4.32;;
41436;SDS011;27178;49.460;10.850;2023-03-20T07:18:44;4.55;;;4.25;;
41436;SDS011;27178;49.460;10.850;2023-03-20T07:21:14;4.88;;;4.47;;
41436;SDS011;27178;49.460;10.850;2023-03-20T07:23:46;5.22;;;4.82;;
41436;SDS011;27178;49.460;10.850;2023-03-20T07:26:14;4.88;;;4.55;;
41436;SDS011;27178;49.460;10.850;2023-03-20T07:28:43;4.80;;;4.40;;
41436;SDS011;27178;49.460;10.850;2023-03-20T07:31:17;4.72;;;4.38;;
41436;SDS011;27178;49.460;10.850;2023-03-20T07:33:49;4.30;;;4.00;;
41436;SDS011;27178;49.460;10.850;2023-03-20T07:36:17;4.60;;;4.30;;
41436;SDS011;27178;49.460;10.850;2023-03-20T07:38:45;5.10;;;4.07;;
41436;SDS011;27178;49.460;10.850;2023-03-20T07:41:13;4.35;;;4.05;;
41436;SDS011;27178;49.460;10.850;2023-03-20T07:43:42;4.03;;;3.72;;
41436;SDS011;27178;49.460;10.850;2023-03-20T07:46:10;4.15;;;3.85;;
41436;SDS011;27178;49.460;10.850;2023-03-20T07:48:39;3.95;;;3.47;;
41436;SDS011;27178;49.460;10.850;2023-03-20T07:51:08;4.03;;;3.72;;
41436;SDS011;27178;49.460;10.850;2023-03-20T07:53:37;4.15;;;3.78;;
41436;SDS011;27178;49.460;10.850;2023-03-20T07:56:05;4.13;;;3.83;;
41436;SDS011;27178;49.460;10.850;2023-03-20T07:58:34;3.63;;;3.33;;
41436;SDS011;27178;49.460;10.850;2023-03-20T08:01:03;3.58;;;3.28;;
41436;SDS011;27178;49.460;10.850;2023-03-20T08:03:31;3.75;;;3.45;;
41436;SDS011;27178;49.460;10.850;2023-03-20T08:06:00;4.20;;;3.90;;
41436;SDS011;27178;49.460;10.850;2023-03-20T08:08:31;3.92;;;3.63;;
41436;SDS011;27178;49.460;10.850;2023-03-20T08:10:59;5.40;;;3.97;;
41436;SDS011;27178;49.460;10.850;2023-03-20T08:13:28;4.10;;;3.72;;
41436;SDS011;27178;49.460;10.850;2023-03-20T08:15:56;4.30;;;4.00;;
41436;SDS011;27178;49.460;10.850;2023-03-20T08:18:24;4.32;;;3.92;;
41436;SDS011;27178;49.460;10.850;2023-03-20T08:20:53;3.63;;;3.35;;
41436;SDS011;27178;49.460;10.850;2023-03-20T08:23:21;3.70;;;3.40;;
41436;SDS011;27178;49.460;10.850;2023-03-20T08:25:51;3.72;;;3.42;;
41436;SDS011;27178;49.460;10.850;2023-03-20T08:28:20;4.15;;;3.85;;
41436;SDS011;27178;49.460;10.850;2023-03-20T08:31:09;3.90;;;3.60;;
41436;SDS011;27178;49.460;10.850;2023-03-20T08:33:38;4.00;;;3.60;;
41436;SDS011;27178;49.460;10.850;2023-03-20T08:36:06;3.97;;;3.63;;
41436;SDS011;27178;49.460;10.850;2023-03-20T08:38:35;3.90;;;3.60;;
41436;SDS011;27178;49.460;10.850;2023-03-20T08:41:06;3.97;;;3.67;;
41436;SDS011;27178;49.460;10.850;2023-03-20T08:43:35;4.00;;;3.60;;
41436;SDS011;27178;49.460;10.850;2023-03-20T08:46:04;3.75;;;3.45;;
41436;SDS011;27178;49.460;10.850;2023-03-20T08:48:32;4.88;;;3.83;;
41436;SDS011;27178;49.460;10.850;2023-03-20T08:51:01;3.90;;;3.60;;
41436;SDS011;27178;49.460;10.850;2023-03-20T08:53:30;3.90;;;3.60;;
41436;SDS011;27178;49.460;10.850;2023-03-20T08:55:58;4.50;;;4.10;;
41436;SDS011;27178;49.460;10.850;2023-03-20T08:58:29;3.83;;;3.53;;
41436;SDS011;27178;49.460;10.850;2023-03-20T09:01:01;3.83;;;3.53;;
41436;SDS011;27178;49.460;10.850;2023-03-20T09:03:30;3.88;;;3.58;;
41436;SDS011;27178;49.460;10.850;2023-03-20T09:05:59;5.15;;;3.97;;
41436;SDS011;27178;49.460;10.850;2023-03-20T09:08:27;3.75;;;3.42;;
41436;SDS011;27178;49.460;10.850;2023-03-20T09:10:56;4.10;;;3.80;;
41436;SDS011;27178;49.460;10.850;2023-03-20T09:13:24;3.70;;;3.40;;
41436;SDS011;27178;49.460;10.850;2023-03-20T09:15:54;3.88;;;3.58;;
41436;SDS011;27178;49.460;10.850;2023-03-20T09:18:23;4.75;;;4.32;;
41436;SDS011;27178;49.460;10.850;2023-03-20T09:20:52;4.13;;;3.83;;
41436;SDS011;27178;49.460;10.850;2023-03-20T09:23:22;3.60;;;3.35;;
41436;SDS011;27178;49.460;10.850;2023-03-20T09:25:50;3.80;;;3.50;;
41436;SDS011;27178;49.460;10.850;2023-03-20T09:28:19;3.78;;;3.47;;
41436;SDS011;27178;49.460;10.850;2023-03-20T09:30:48;4.03;;;3.63;;
41436;SDS011;27178;49.460;10.850;2023-03-20T09:33:18;4.13;;;3.83;;
41436;SDS011;27178;49.460;10.850;2023-03-20T09:35:46;3.83;;;3.58;;
41436;SDS011;27178;49.460;10.850;2023-03-20T09:38:15;3.92;;;3.63;;
41436;SDS011;27178;49.460;10.850;2023-03-20T09:40:49;4.00;;;3.70;;
41436;SDS011;27178;49.460;10.850;2023-03-20T09:43:24;3.58;;;3.25;;
41436;SDS011;27178;49.460;10.850;2023-03-20T09:46:05;3.00;;;2.80;;
41436;SDS011;27178;49.460;10.850;2023-03-20T09:48:45;3.30;;;3.10;;
41436;SDS011;27178;49.460;10.850;2023-03-20T09:51:20;3.88;;;3.10;;
41436;SDS011;27178;49.460;10.850;2023-03-20T09:53:55;3.47;;;3.17;;
41436;SDS011;27178;49.460;10.850;2023-03-20T09:56:27;4.13;;;3.83;;
41436;SDS011;27178;49.460;10.850;2023-03-20T09:58:57;3.95;;;3.55;;
41436;SDS011;27178;49.460;10.850;2023-03-20T10:01:29;4.00;;;3.60;;
41436;SDS011;27178;49.460;10.850;2023-03-20T10:04:05;3.53;;;3.25;;
41436;SDS011;27178;49.460;10.850;2023-03-20T10:06:36;3.63;;;3.33;;
41436;SDS011;27178;49.460;10.850;2023-03-20T10:09:06;2.90;;;2.70;;
41436;SDS011;27178;49.460;10.850;2023-03-20T10:11:49;3.33;;;3.03;;
41436;SDS011;27178;49.460;10.850;2023-03-20T10:14:36;3.17;;;2.97;;
41436;SDS011;27178;49.460;10.850;2023-03-20T10:17:16;2.95;;;2.75;;
41436;SDS011;27178;49.460;10.850;2023-03-20T10:19:55;3.05;;;2.75;;
41436;SDS011;27178;49.460;10.850;2023-03-20T10:22:26;3.33;;;3.05;;
41436;SDS011;27178;49.460;10.850;2023-03-20T10:25:02;2.97;;;2.78;;
41436;SDS011;27178;49.460;10.850;2023-03-20T10:27:35;3.45;;;3.15;;
41436;SDS011;27178;49.460;10.850;2023-03-20T10:32:58;3.25;;;2.97;;
41436;SDS011;27178;49.460;10.850;2023-03-20T10:35:36;3.55;;;3.25;;
41436;SDS011;27178;49.460;10.850;2023-03-20T10:38:12;3.33;;;3.10;;
41436;SDS011;27178;49.460;10.850;2023-03-20T10:40:50;3.33;;;3.13;;
41436;SDS011;27178;49.460;10.850;2023-03-20T10:43:24;3.47;;;3.20;;
41436;SDS011;27178;49.460;10.850;2023-03-20T10:45:57;3.28;;;3.08;;
41436;SDS011;27178;49.460;10.850;2023-03-20T10:48:31;3.67;;;3.38;;
41436;SDS011;27178;49.460;10.850;2023-03-20T10:51:05;3.55;;;3.25;;
41436;SDS011;27178;49.460;10.850;2023-03-20T10:53:40;4.00;;;3.70;;
41436;SDS011;27178;49.460;10.850;2023-03-20T10:56:14;3.28;;;3.08;;
41436;SDS011;27178;49.460;10.850;2023-03-20T10:58:47;3.85;;;3.55;;
41436;SDS011;27178;49.460;10.850;2023-03-20T11:01:26;3.95;;;3.65;;
41436;SDS011;27178;49.460;10.850;2023-03-20T11:03:54;4.00;;;3.70;;
41436;SDS011;27178;49.460;10.850;2023-03-20T11:06:25;4.28;;;3.88;;
41436;SDS011;27178;49.460;10.850;2023-03-20T11:08:57;4.55;;;4.18;;
41436;SDS011;27178;49.460;10.850;2023-03-20T11:11:38;4.35;;;3.95;;
41436;SDS011;27178;49.460;10.850;2023-03-20T11:14:14;4.22;;;3.92;;
41436;SDS011;27178;49.460;10.850;2023-03-20T11:16:46;4.78;;;4.38;;
41436;SDS011;27178;49.460;10.850;2023-03-20T11:19:14;4.35;;;4.00;;
41436;SDS011;27178;49.460;10.850;2023-03-20T11:21:46;4.70;;;4.30;;
41436;SDS011;27178;49.460;10.850;2023-03-20T11:24:25;4.20;;;3.90;;
41436;SDS011;27178;49.460;10.850;2023-03-20T11:27:04;4.13;;;3.80;;
41436;SDS011;27178;49.460;10.850;2023-03-20T11:29:33;4.47;;;4.10;;
41436;SDS011;27178;49.460;10.850;2023-03-20T11:32:03;4.15;;;3.85;;
41436;SDS011;27178;49.460;10.850;2023-03-20T11:34:35;4.90;;;3.58;;
41436;SDS011;27178;49.460;10.850;2023-03-20T11:37:17;3.35;;;3.08;;
41436;SDS011;27178;49.460;10.850;2023-03-20T11:39:52;3.78;;;3.47;;
41436;SDS011;27178;49.460;10.850;2023-03-20T11:42:26;3.63;;;3.33;;
41436;SDS011;27178;49.460;10.850;2023-03-20T11:44:56;3.65;;;3.35;;
41436;SDS011;27178;49.460;10.850;2023-03-20T11:47:27;3.53;;;3.22;;
41436;SDS011;27178;49.460;10.850;2023-03-20T11:50:00;3.70;;;3.40;;
41436;SDS011;27178;49.460;10.850;2023-03-20T11:52:33;4.13;;;3.72;;
41436;SDS011;27178;49.460;10.850;2023-03-20T11:55:04;3.92;;;3.55;;
41436;SDS011;27178;49.460;10.850;2023-03-20T11:57:46;3.78;;;3.47;;
41436;SDS011;27178;49.460;10.850;2023-03-20T12:00:16;3.42;;;3.13;;
41436;SDS011;27178;49.460;10.850;2023-03-20T12:02:46;3.40;;;3.10;;
41436;SDS011;27178;49.460;10.850;2023-03-20T12:05:22;3.45;;;3.15;;
41436;SDS011;27178;49.460;10.850;2023-03-20T12:07:57;3.58;;;3.28;;
41436;SDS011;27178;49.460;10.850;2023-03-20T12:10:31;4.68;;;4.15;;
41436;SDS011;27178;49.460;10.850;2023-03-20T12:13:05;4.00;;;3.60;;
41436;SDS011;27178;49.460;10.850;2023-03-20T12:15:40;4.07;;;3.70;;
41436;SDS011;27178;49.460;10.850;2023-03-20T12:18:14;3.20;;;2.92;;
41436;SDS011;27178;49.460;10.850;2023-03-20T12:20:51;3.00;;;2.80;;
41436;SDS011;27178;49.460;10.850;2023-03-20T12:23:31;2.63;;;2.42;;
41436;SDS011;27178;49.460;10.850;2023-03-20T12:26:03;3.00;;;2.80;;
41436;SDS011;27178;49.460;10.850;2023-03-20T12:28:35;2.70;;;2.50;;
41436;SDS011;27178;49.460;10.850;2023-03-20T12:31:13;3.38;;;3.08;;
41436;SDS011;27178;49.460;10.850;2023-03-20T12:33:49;3.17;;;2.97;;
41436;SDS011;27178;49.460;10.850;2023-03-20T12:36:24;4.05;;;3.03;;
41436;SDS011;27178;49.460;10.850;2023-03-20T12:38:59;2.70;;;2.50;;
41436;SDS011;27178;49.460;10.850;2023-03-20T12:41:33;3.22;;;2.92;;
41436;SDS011;27178;49.460;10.850;2023-03-20T12:44:15;3.55;;;3.25;;
41436;SDS011;27178;49.460;10.850;2023-03-20T12:46:59;3.20;;;2.80;;
41436;SDS011;27178;49.460;10.850;2023-03-20T12:49:40;2.70;;;2.50;;
41436;SDS011;27178;49.460;10.850;2023-03-20T12:52:19;3.00;;;2.80;;
41436;SDS011;27178;49.460;10.850;2023-03-20T12:55:02;2.85;;;2.65;;
41436;SDS011;27178;49.460;10.850;2023-03-20T12:57:43;3.45;;;3.15;;
41436;SDS011;27178;49.460;10.850;2023-03-20T13:00:22;3.15;;;2.95;;
41436;SDS011;27178;49.460;10.850;2023-03-20T13:03:01;3.03;;;2.72;;
41436;SDS011;27178;49.460;10.850;2023-03-20T13:05:39;3.55;;;3.25;;
41436;SDS011;27178;49.460;10.850;2023-03-20T13:08:22;3.17;;;2.90;;
41436;SDS011;27178;49.460;10.850;2023-03-20T13:11:10;3.28;;;3.08;;
41436;SDS011;27178;49.460;10.850;2023-03-20T13:13:48;3.03;;;2.67;;
41436;SDS011;27178;49.460;10.850;2023-03-20T13:16:22;3.50;;;3.20;;
41436;SDS011;27178;49.460;10.850;2023-03-20T13:19:00;3.10;;;2.90;;
41436;SDS011;27178;49.460;10.850;2023-03-20T13:21:36;2.97;;;2.78;;
41436;SDS011;27178;49.460;10.850;2023-03-20T13:24:15;3.17;;;2.95;;
41436;SDS011;27178;49.460;10.850;2023-03-20T13:26:56;3.45;;;3.15;;
41436;SDS011;27178;49.460;10.850;2023-03-20T13:29:32;4.28;;;3.28;;
41436;SDS011;27178;49.460;10.850;2023-03-20T13:32:11;8.30;;;3.35;;
41436;SDS011;27178;49.460;10.850;2023-03-20T13:37:44;3.45;;;3.17;;
41436;SDS011;27178;49.460;10.850;2023-03-20T13:40:16;3.47;;;3.17;;
41436;SDS011;27178;49.460;10.850;2023-03-20T13:42:51;4.00;;;3.60;;
41436;SDS011;27178;49.460;10.850;2023-03-20T13:45:28;3.72;;;3.42;;
41436;SDS011;27178;49.460;10.850;2023-03-20T13:48:02;3.70;;;3.40;;
41436;SDS011;27178;49.460;10.850;2023-03-20T13:50:41;5.00;;;3.97;;
41436;SDS011;27178;49.460;10.850;2023-03-20T13:53:18;3.53;;;3.22;;
41436;SDS011;27178;49.460;10.850;2023-03-20T13:55:57;4.05;;;3.75;;
41436;SDS011;27178;49.460;10.850;2023-03-20T13:58:47;4.53;;;4.13;;
41436;SDS011;27178;49.460;10.850;2023-03-20T14:01:28;4.45;;;4.05;;
41436;SDS011;27178;49.460;10.850;2023-03-20T14:04:07;4.53;;;4.13;;
41436;SDS011;27178;49.460;10.850;2023-03-20T14:06:49;5.30;;;4.10;;
41436;SDS011;27178;49.460;10.850;2023-03-20T14:12:05;4.55;;;4.22;;
41436;SDS011;27178;49.460;10.850;2023-03-20T14:14:41;4.78;;;4.38;;
41436;SDS011;27178;49.460;10.850;2023-03-20T14:17:14;4.25;;;3.85;;
41436;SDS011;27178;49.460;10.850;2023-03-20T14:19:45;4.60;;;4.20;;
41436;SDS011;27178;49.460;10.850;2023-03-20T14:22:17;5.38;;;4.88;;
41436;SDS011;27178;49.460;10.850;2023-03-20T14:24:53;4.82;;;4.43;;
41436;SDS011;27178;49.460;10.850;2023-03-20T14:27:25;5.07;;;4.68;;
41436;SDS011;27178;49.460;10.850;2023-03-20T14:33:23;4.80;;;4.40;;
41436;SDS011;27178;49.460;10.850;2023-03-20T14:38:48;4.95;;;4.55;;
41436;SDS011;27178;49.460;10.850;2023-03-20T14:41:25;5.03;;;4.63;;
41436;SDS011;27178;49.460;10.850;2023-03-20T14:44:03;5.85;;;5.03;;
41436;SDS011;27178;49.460;10.850;2023-03-20T14:46:47;5.70;;;5.20;;
41436;SDS011;27178;49.460;10.850;2023-03-20T14:49:23;5.75;;;5.25;;
41436;SDS011;27178;49.460;10.850;2023-03-20T14:52:13;5.25;;;4.78;;
41436;SDS011;27178;49.460;10.850;2023-03-20T14:55:13;5.57;;;5.07;;
41436;SDS011;27178;49.460;10.850;2023-03-20T14:58:03;5.97;;;5.47;;
41436;SDS011;27178;49.460;10.850;2023-03-20T15:00:33;5.97;;;5.47;;
41436;SDS011;27178;49.460;10.850;2023-03-20T15:03:12;6.85;;;6.25;;
41436;SDS011;27178;49.460;10.850;2023-03-20T15:05:43;6.30;;;5.75;;
41436;SDS011;27178;49.460;10.850;2023-03-20T15:08:14;6.47;;;5.88;;
41436;SDS011;27178;49.460;10.850;2023-03-20T15:10:48;6.28;;;5.68;;
41436;SDS011;27178;49.460;10.850;2023-03-20T15:13:19;6.35;;;5.85;;
41436;SDS011;27178;49.460;10.850;2023-03-20T15:15:51;6.57;;;5.97;;
41436;SDS011;27178;49.460;10.850;2023-03-20T15:18:23;7.05;;;6.35;;
41436;SDS011;27178;49.460;10.850;2023-03-20T15:20:54;6.53;;;5.95;;
41436;SDS011;27178;49.460;10.850;2023-03-20T15:23:24;5.78;;;5.22;;
41436;SDS011;27178;49.460;10.850;2023-03-20T15:25:52;6.60;;;6.00;;
41436;SDS011;27178;49.460;10.850;2023-03-20T15:28:21;6.45;;;5.80;;
41436;SDS011;27178;49.460;10.850;2023-03-20T15:30:52;5.88;;;5.38;;
41436;SDS011;27178;49.460;10.850;2023-03-20T15:33:25;6.10;;;5.60;;